createdAt,value
2018-02-24T00:00:39.513Z,0
2018-02-24T00:01:39.548Z,0
2018-02-24T00:02:38.974Z,0
2018-02-24T00:03:39.513Z,0
2018-02-24T00:04:39.475Z,0
2018-02-24T00:05:39.710Z,0
2018-02-24T00:06:39.452Z,0
2018-02-24T00:07:39.768Z,0
2018-02-24T00:08:39.686Z,0
2018-02-24T00:09:39.409Z,0
2018-02-24T00:10:39.399Z,0
2018-02-24T00:11:39.669Z,0
2018-02-24T00:12:39.372Z,0
2018-02-24T00:13:39.368Z,0
2018-02-24T00:14:39.689Z,0
2018-02-24T00:15:39.098Z,0
2018-02-24T00:16:39.350Z,0
2018-02-24T00:17:39.374Z,0
2018-02-24T00:18:39.578Z,0
2018-02-24T00:19:39.285Z,0
2018-02-24T00:20:39.390Z,0
2018-02-24T00:21:38.774Z,0
2018-02-24T00:22:39.512Z,0
2018-02-24T00:23:39.501Z,0
2018-02-24T00:24:39.500Z,0
2018-02-24T00:25:39.482Z,0
2018-02-24T00:26:39.234Z,0
2018-02-24T00:27:39.191Z,0
2018-02-24T00:28:39.219Z,0
2018-02-24T00:29:39.180Z,0
2018-02-24T00:30:39.426Z,0
2018-02-24T00:31:39.402Z,0
2018-02-24T00:32:39.400Z,0
2018-02-24T00:33:39.120Z,0
2018-02-24T00:34:39.844Z,0
2018-02-24T00:35:38.940Z,0
2018-02-24T00:36:39.096Z,0
2018-02-24T00:37:39.336Z,0
2018-02-24T00:38:39.063Z,0
2018-02-24T00:39:39.302Z,0
2018-02-24T00:40:38.788Z,0
2018-02-24T00:41:39.304Z,0
2018-02-24T00:42:39.018Z,0
2018-02-24T00:43:38.753Z,0
2018-02-24T00:44:39.257Z,0
2018-02-24T00:45:38.729Z,0
2018-02-24T00:46:38.720Z,0
2018-02-24T00:47:39.231Z,0
2018-02-24T00:48:39.207Z,0
2018-02-24T00:49:38.925Z,0
2018-02-24T00:50:39.186Z,0
2018-02-24T00:51:38.662Z,0
2018-02-24T00:52:40.808Z,0
2018-02-24T00:53:39.136Z,0
2018-02-24T00:54:39.313Z,0
2018-02-24T00:55:39.128Z,0
2018-02-24T00:56:38.338Z,0
2018-02-24T00:57:39.183Z,0
2018-02-24T00:58:38.672Z,0
2018-02-24T00:59:39.062Z,0
2018-02-24T01:00:38.541Z,0
2018-02-24T01:01:39.036Z,0
2018-02-24T01:02:39.093Z,0
2018-02-24T01:03:38.760Z,0
2018-02-24T01:04:38.768Z,0
2018-02-24T01:05:39.132Z,0
2018-02-24T01:06:38.974Z,0
2018-02-24T01:07:38.461Z,0
2018-02-24T01:08:38.701Z,0
2018-02-24T01:09:38.953Z,0
2018-02-24T01:10:38.928Z,0
2018-02-24T01:11:38.416Z,0
2018-02-24T01:12:38.663Z,0
2018-02-24T01:13:38.390Z,0
2018-02-24T01:14:38.636Z,0
2018-02-24T01:15:38.638Z,0
2018-02-24T01:16:38.859Z,0
2018-02-24T01:17:38.590Z,0
2018-02-24T01:18:38.326Z,0
2018-02-24T01:19:38.621Z,0
2018-02-24T01:20:38.052Z,0
2018-02-24T01:21:38.565Z,0
2018-02-24T01:22:38.875Z,0
2018-02-24T01:23:38.278Z,0
2018-02-24T01:24:38.517Z,0
2018-02-24T01:25:38.756Z,0
2018-02-24T01:26:38.499Z,0
2018-02-24T01:27:38.518Z,0
2018-02-24T01:28:38.210Z,0
2018-02-24T01:29:37.944Z,0
2018-02-24T01:30:38.701Z,0
2018-02-24T01:31:38.440Z,0
2018-02-24T01:32:38.165Z,0
2018-02-24T01:33:38.404Z,0
2018-02-24T01:34:37.896Z,0
2018-02-24T01:35:39.451Z,0
2018-02-24T01:36:38.377Z,0
2018-02-24T01:37:38.122Z,0
2018-02-24T01:38:38.625Z,0
2018-02-24T01:39:38.583Z,0
2018-02-24T01:40:37.825Z,0
2018-02-24T01:41:38.417Z,0
2018-02-24T01:42:38.051Z,0
2018-02-24T01:43:38.282Z,0
2018-02-24T01:44:38.025Z,0
2018-02-24T01:45:37.750Z,0
2018-02-24T01:46:38.245Z,0
2018-02-24T01:47:38.498Z,0
2018-02-24T01:48:37.965Z,0
2018-02-24T01:49:37.968Z,0
2018-02-24T01:50:38.459Z,0
2018-02-24T01:51:38.449Z,0
2018-02-24T01:52:38.449Z,0
2018-02-24T01:53:37.676Z,0
2018-02-24T01:54:38.221Z,0
2018-02-24T01:55:37.895Z,0
2018-02-24T01:56:38.378Z,0
2018-02-24T01:57:38.117Z,0
2018-02-24T01:58:37.624Z,0
2018-02-24T01:59:38.096Z,0
2018-02-24T02:00:37.570Z,0
2018-02-24T02:01:38.336Z,0
2018-02-24T02:02:38.050Z,0
2018-02-24T02:03:38.293Z,0
2018-02-24T02:04:38.026Z,0
2018-02-24T02:05:38.284Z,0
2018-02-24T02:06:38.266Z,0
2018-02-24T02:07:38.242Z,0
2018-02-24T02:08:38.237Z,0
2018-02-24T02:09:37.771Z,0
2018-02-24T02:10:37.443Z,0
2018-02-24T02:11:37.949Z,0
2018-02-24T02:12:37.926Z,0
2018-02-24T02:13:37.927Z,0
2018-02-24T02:14:37.913Z,0
2018-02-24T02:15:37.659Z,0
2018-02-24T02:16:37.885Z,0
2018-02-24T02:17:38.131Z,0
2018-02-24T02:18:37.610Z,0
2018-02-24T02:19:37.840Z,0
2018-02-24T02:20:37.591Z,0
2018-02-24T02:21:37.831Z,0
2018-02-24T02:22:37.825Z,0
2018-02-24T02:23:37.289Z,0
2018-02-24T02:24:37.797Z,0
2018-02-24T02:25:37.779Z,0
2018-02-24T02:26:37.762Z,0
2018-02-24T02:27:37.554Z,0
2018-02-24T02:28:37.494Z,0
2018-02-24T02:29:37.492Z,0
2018-02-24T02:30:37.494Z,0
2018-02-24T02:31:37.708Z,0
2018-02-24T02:32:37.705Z,0
2018-02-24T02:33:37.445Z,0
2018-02-24T02:34:37.443Z,0
2018-02-24T02:35:37.659Z,0
2018-02-24T02:36:37.911Z,0
2018-02-24T02:37:37.636Z,0
2018-02-24T02:38:37.880Z,0
2018-02-24T02:39:37.109Z,0
2018-02-24T02:40:37.390Z,0
2018-02-24T02:41:37.839Z,0
2018-02-24T02:42:37.837Z,0
2018-02-24T02:43:37.304Z,0
2018-02-24T02:44:37.559Z,0
2018-02-24T02:45:37.552Z,0
2018-02-24T02:46:37.836Z,0
2018-02-24T02:47:37.522Z,0
2018-02-24T02:48:37.769Z,0
2018-02-24T02:49:37.225Z,0
2018-02-24T02:50:37.507Z,0
2018-02-24T02:51:37.479Z,0
2018-02-24T02:52:37.189Z,0
2018-02-24T02:53:37.714Z,0
2018-02-24T02:54:37.427Z,0
2018-02-24T02:55:37.449Z,0
2018-02-24T02:56:37.409Z,0
2018-02-24T02:57:37.397Z,0
2018-02-24T02:58:37.645Z,0
2018-02-24T02:59:37.620Z,0
2018-02-24T03:00:37.111Z,0
2018-02-24T03:01:37.426Z,0
2018-02-24T03:02:37.601Z,0
2018-02-24T03:03:37.065Z,0
2018-02-24T03:04:37.570Z,0
2018-02-24T03:05:37.560Z,0
2018-02-24T03:06:37.279Z,0
2018-02-24T03:07:37.265Z,0
2018-02-24T03:08:37.247Z,0
2018-02-24T03:09:36.993Z,0
2018-02-24T03:10:37.515Z,0
2018-02-24T03:11:37.482Z,0
2018-02-24T03:12:37.205Z,0
2018-02-24T03:13:37.452Z,0
2018-02-24T03:14:37.453Z,0
2018-02-24T03:15:37.458Z,0
2018-02-24T03:16:37.416Z,0
2018-02-24T03:17:37.411Z,0
2018-02-24T03:18:37.129Z,0
2018-02-24T03:19:37.376Z,0
2018-02-24T03:20:37.118Z,0
2018-02-24T03:21:37.339Z,0
2018-02-24T03:22:37.341Z,0
2018-02-24T03:23:37.325Z,0
2018-02-24T03:24:37.312Z,0
2018-02-24T03:25:37.047Z,0
2018-02-24T03:26:37.017Z,0
2018-02-24T03:27:37.016Z,0
2018-02-24T03:28:36.993Z,0
2018-02-24T03:29:37.235Z,0
2018-02-24T03:30:37.272Z,0
2018-02-24T03:31:36.913Z,0
2018-02-24T03:32:36.686Z,0
2018-02-24T03:33:36.672Z,0
2018-02-24T03:34:37.190Z,0
2018-02-24T03:35:38.126Z,0
2018-02-24T03:36:36.884Z,0
2018-02-24T03:37:36.639Z,0
2018-02-24T03:38:37.110Z,0
2018-02-24T03:39:37.106Z,0
2018-02-24T03:40:37.109Z,0
2018-02-24T03:41:36.585Z,0
2018-02-24T03:42:37.068Z,0
2018-02-24T03:43:36.797Z,0
2018-02-24T03:44:36.781Z,0
2018-02-24T03:45:37.040Z,0
2018-02-24T03:46:37.019Z,0
2018-02-24T03:47:36.752Z,0
2018-02-24T03:48:36.981Z,0
2018-02-24T03:49:36.236Z,0
2018-02-24T03:50:36.202Z,0
2018-02-24T03:51:36.932Z,0
2018-02-24T03:52:36.681Z,0
2018-02-24T03:53:36.910Z,0
2018-02-24T03:54:36.661Z,0
2018-02-24T03:55:36.653Z,0
2018-02-24T03:56:36.883Z,0
2018-02-24T03:57:36.863Z,0
2018-02-24T03:58:36.609Z,0
2018-02-24T03:59:36.321Z,0
2018-02-24T04:00:36.823Z,0
2018-02-24T04:01:36.547Z,0
2018-02-24T04:02:36.538Z,0
2018-02-24T04:03:36.778Z,0
2018-02-24T04:04:36.769Z,0
2018-02-24T04:05:36.502Z,0
2018-02-24T04:06:36.542Z,0
2018-02-24T04:07:36.734Z,0
2018-02-24T04:08:36.721Z,0
2018-02-24T04:09:36.704Z,0
2018-02-24T04:10:36.702Z,0
2018-02-24T04:11:36.424Z,0
2018-02-24T04:12:36.158Z,0
2018-02-24T04:13:36.398Z,0
2018-02-24T04:14:36.403Z,0
2018-02-24T04:15:36.636Z,0
2018-02-24T04:16:36.661Z,0
2018-02-24T04:17:36.347Z,0
2018-02-24T04:18:36.582Z,0
2018-02-24T04:19:36.581Z,0
2018-02-24T04:20:36.547Z,0
2018-02-24T04:21:37.539Z,0
2018-02-24T04:22:36.264Z,0
2018-02-24T04:23:36.500Z,0
2018-02-24T04:24:36.260Z,0
2018-02-24T04:25:36.502Z,0
2018-02-24T04:26:36.219Z,0
2018-02-24T04:27:36.443Z,0
2018-02-24T04:28:36.215Z,0
2018-02-24T04:29:36.417Z,0
2018-02-24T04:30:35.914Z,0
2018-02-24T04:31:36.185Z,0
2018-02-24T04:32:36.396Z,0
2018-02-24T04:33:35.603Z,0
2018-02-24T04:34:36.099Z,0
2018-02-24T04:35:35.832Z,0
2018-02-24T04:36:39.005Z,0
2018-02-24T04:37:36.066Z,0
2018-02-24T04:38:36.332Z,0
2018-02-24T04:39:36.036Z,0
2018-02-24T04:40:36.024Z,0
2018-02-24T04:41:36.001Z,0
2018-02-24T04:42:35.732Z,0
2018-02-24T04:43:36.258Z,0
2018-02-24T04:44:36.002Z,0
2018-02-24T04:45:36.213Z,0
2018-02-24T04:46:36.189Z,0
2018-02-24T04:47:36.178Z,0
2018-02-24T04:48:36.160Z,0
2018-02-24T04:49:35.909Z,0
2018-02-24T04:50:35.890Z,0
2018-02-24T04:51:35.615Z,0
2018-02-24T04:52:35.611Z,0
2018-02-24T04:53:36.102Z,0
2018-02-24T04:54:35.597Z,0
2018-02-24T04:55:35.816Z,0
2018-02-24T04:56:35.804Z,0
2018-02-24T04:57:35.528Z,0
2018-02-24T04:58:35.764Z,0
2018-02-24T04:59:35.767Z,0
2018-02-24T05:00:35.979Z,0
2018-02-24T05:01:35.732Z,0
2018-02-24T05:02:35.967Z,0
2018-02-24T05:03:35.951Z,0
2018-02-24T05:04:35.941Z,0
2018-02-24T05:05:35.917Z,0
2018-02-24T05:06:35.404Z,0
2018-02-24T05:07:36.685Z,0
2018-02-24T05:08:35.825Z,0
2018-02-24T05:09:35.618Z,0
2018-02-24T05:10:35.617Z,0
2018-02-24T05:11:35.331Z,0
2018-02-24T05:12:35.310Z,0
2018-02-24T05:13:35.821Z,0
2018-02-24T05:14:35.792Z,0
2018-02-24T05:15:35.787Z,0
2018-02-24T05:16:35.503Z,0
2018-02-24T05:17:35.766Z,0
2018-02-24T05:18:35.486Z,0
2018-02-24T05:19:35.459Z,0
2018-02-24T05:20:35.739Z,0
2018-02-24T05:21:35.444Z,0
2018-02-24T05:22:35.420Z,0
2018-02-24T05:23:35.167Z,0
2018-02-24T05:24:35.415Z,0
2018-02-24T05:25:34.879Z,0
2018-02-24T05:26:35.373Z,0
2018-02-24T05:27:35.121Z,0
2018-02-24T05:28:35.378Z,0
2018-02-24T05:29:35.323Z,0
2018-02-24T05:30:35.563Z,0
2018-02-24T05:31:35.555Z,0
2018-02-24T05:32:35.537Z,0
2018-02-24T05:33:35.532Z,0
2018-02-24T05:34:34.752Z,0
2018-02-24T05:35:35.493Z,0
2018-02-24T05:36:35.239Z,0
2018-02-24T05:37:40.555Z,0
2018-02-24T05:38:35.450Z,0
2018-02-24T05:39:35.442Z,0
2018-02-24T05:40:35.189Z,0
2018-02-24T05:41:34.893Z,0
2018-02-24T05:42:34.638Z,0
2018-02-24T05:43:35.118Z,0
2018-02-24T05:44:35.365Z,0
2018-02-24T05:45:34.845Z,0
2018-02-24T05:46:34.826Z,0
2018-02-24T05:47:35.321Z,0
2018-02-24T05:48:35.057Z,0
2018-02-24T05:49:34.782Z,0
2018-02-24T05:50:35.022Z,0
2018-02-24T05:51:34.758Z,0
2018-02-24T05:52:35.249Z,0
2018-02-24T05:53:35.253Z,0
2018-02-24T05:54:34.964Z,0
2018-02-24T05:55:34.959Z,0
2018-02-24T05:56:34.942Z,0
2018-02-24T05:57:35.297Z,0
2018-02-24T05:58:34.656Z,0
2018-02-24T05:59:34.890Z,0
2018-02-24T06:00:34.881Z,0
2018-02-24T06:01:34.879Z,0
2018-02-24T06:02:34.871Z,0
2018-02-24T06:03:35.099Z,0
2018-02-24T06:04:35.074Z,0
2018-02-24T06:05:34.802Z,0
2018-02-24T06:06:34.793Z,0
2018-02-24T06:07:34.808Z,0
2018-02-24T06:08:35.308Z,0
2018-02-24T06:09:34.783Z,0
2018-02-24T06:10:34.987Z,5
2018-02-24T06:11:34.727Z,5
2018-02-24T06:12:34.986Z,5
2018-02-24T06:13:34.943Z,5
2018-02-24T06:14:34.933Z,5
2018-02-24T06:15:34.414Z,5
2018-02-24T06:16:34.894Z,5
2018-02-24T06:17:34.664Z,5
2018-02-24T06:18:34.624Z,10
2018-02-24T06:19:34.854Z,10
2018-02-24T06:20:34.842Z,10
2018-02-24T06:21:34.601Z,10
2018-02-24T06:22:34.576Z,10
2018-02-24T06:23:36.654Z,10
2018-02-24T06:24:34.271Z,15
2018-02-24T06:25:34.514Z,15
2018-02-24T06:26:34.254Z,15
2018-02-24T06:27:34.481Z,15
2018-02-24T06:28:34.231Z,20
2018-02-24T06:29:34.471Z,20
2018-02-24T06:30:34.196Z,20
2018-02-24T06:31:34.683Z,20
2018-02-24T06:32:34.158Z,25
2018-02-24T06:33:34.667Z,25
2018-02-24T06:34:34.396Z,25
2018-02-24T06:35:34.370Z,25
2018-02-24T06:36:34.617Z,30
2018-02-24T06:37:34.096Z,30
2018-02-24T06:38:36.730Z,30
2018-02-24T06:39:34.598Z,35
2018-02-24T06:40:34.552Z,35
2018-02-24T06:41:34.544Z,40
2018-02-24T06:42:34.536Z,40
2018-02-24T06:43:34.266Z,40
2018-02-24T06:44:34.504Z,45
2018-02-24T06:45:33.971Z,45
2018-02-24T06:46:34.471Z,45
2018-02-24T06:47:34.208Z,45
2018-02-24T06:48:34.449Z,45
2018-02-24T06:49:34.201Z,50
2018-02-24T06:50:34.453Z,50
2018-02-24T06:51:34.132Z,50
2018-02-24T06:52:34.372Z,55
2018-02-24T06:53:34.408Z,55
2018-02-24T06:54:34.096Z,55
2018-02-24T06:55:33.829Z,55
2018-02-24T06:56:34.323Z,60
2018-02-24T06:57:34.309Z,60
2018-02-24T06:58:33.536Z,60
2018-02-24T06:59:34.029Z,65
2018-02-24T07:00:34.252Z,65
2018-02-24T07:01:33.994Z,65
2018-02-24T07:02:34.238Z,65
2018-02-24T07:03:33.975Z,70
2018-02-24T07:04:33.440Z,70
2018-02-24T07:05:33.681Z,70
2018-02-24T07:06:33.924Z,75
2018-02-24T07:07:34.012Z,75
2018-02-24T07:08:35.198Z,75
2018-02-24T07:09:33.624Z,75
2018-02-24T07:10:33.883Z,80
2018-02-24T07:11:33.849Z,80
2018-02-24T07:12:33.827Z,80
2018-02-24T07:13:34.091Z,80
2018-02-24T07:14:33.581Z,80
2018-02-24T07:15:33.798Z,85
2018-02-24T07:16:34.028Z,85
2018-02-24T07:17:33.778Z,85
2018-02-24T07:18:33.809Z,85
2018-02-24T07:19:34.028Z,85
2018-02-24T07:20:34.053Z,85
2018-02-24T07:21:33.453Z,85
2018-02-24T07:22:33.945Z,90
2018-02-24T07:23:33.932Z,90
2018-02-24T07:24:34.782Z,90
2018-02-24T07:25:33.910Z,90
2018-02-24T07:26:33.896Z,95
2018-02-24T07:27:33.636Z,95
2018-02-24T07:28:33.617Z,95
2018-02-24T07:29:33.615Z,95
2018-02-24T07:30:33.071Z,100
2018-02-24T07:31:33.838Z,105
2018-02-24T07:32:33.316Z,115
2018-02-24T07:33:33.813Z,120
2018-02-24T07:34:33.849Z,125
2018-02-24T07:35:33.575Z,130
2018-02-24T07:36:33.501Z,130
2018-02-24T07:37:33.238Z,135
2018-02-24T07:38:33.261Z,135
2018-02-24T07:39:34.829Z,135
2018-02-24T07:40:33.500Z,140
2018-02-24T07:41:33.705Z,140
2018-02-24T07:42:33.696Z,140
2018-02-24T07:43:33.422Z,140
2018-02-24T07:44:32.906Z,145
2018-02-24T07:45:33.658Z,145
2018-02-24T07:46:33.398Z,145
2018-02-24T07:47:33.379Z,145
2018-02-24T07:48:33.373Z,150
2018-02-24T07:49:33.419Z,150
2018-02-24T07:50:33.675Z,150
2018-02-24T07:51:33.355Z,150
2018-02-24T07:52:33.079Z,155
2018-02-24T07:53:33.316Z,155
2018-02-24T07:54:33.045Z,155
2018-02-24T07:55:33.300Z,155
2018-02-24T07:56:33.043Z,155
2018-02-24T07:57:33.027Z,155
2018-02-24T07:58:33.274Z,155
2018-02-24T07:59:33.073Z,160
2018-02-24T08:00:33.016Z,160
2018-02-24T08:01:33.264Z,160
2018-02-24T08:02:33.248Z,160
2018-02-24T08:03:33.472Z,160
2018-02-24T08:04:33.500Z,160
2018-02-24T08:05:33.211Z,160
2018-02-24T08:06:33.471Z,165
2018-02-24T08:07:33.194Z,165
2018-02-24T08:08:33.239Z,165
2018-02-24T08:09:35.180Z,165
2018-02-24T08:10:33.426Z,165
2018-02-24T08:11:32.653Z,170
2018-02-24T08:12:33.148Z,170
2018-02-24T08:13:33.418Z,170
2018-02-24T08:14:33.131Z,170
2018-02-24T08:15:33.140Z,170
2018-02-24T08:16:33.366Z,175
2018-02-24T08:17:33.200Z,175
2018-02-24T08:18:33.130Z,175
2018-02-24T08:19:33.097Z,175
2018-02-24T08:20:33.090Z,180
2018-02-24T08:21:32.843Z,175
2018-02-24T08:22:33.083Z,180
2018-02-24T08:23:33.068Z,180
2018-02-24T08:24:33.047Z,180
2018-02-24T08:25:33.057Z,180
2018-02-24T08:26:33.037Z,185
2018-02-24T08:27:33.298Z,180
2018-02-24T08:28:33.290Z,180
2018-02-24T08:29:33.264Z,180
2018-02-24T08:30:33.269Z,180
2018-02-24T08:31:33.256Z,180
2018-02-24T08:32:32.738Z,190
2018-02-24T08:33:32.471Z,185
2018-02-24T08:34:32.716Z,185
2018-02-24T08:35:32.457Z,185
2018-02-24T08:36:33.227Z,185
2018-02-24T08:37:32.696Z,190
2018-02-24T08:38:32.940Z,195
2018-02-24T08:40:04.778Z,190
2018-02-24T08:40:36.335Z,195
2018-02-24T08:41:33.159Z,190
2018-02-24T08:42:32.900Z,190
2018-02-24T08:43:33.143Z,195
2018-02-24T08:44:33.151Z,195
2018-02-24T08:45:33.133Z,195
2018-02-24T08:46:32.628Z,195
2018-02-24T08:47:33.104Z,200
2018-02-24T08:48:34.515Z,195
2018-02-24T08:49:32.830Z,200
2018-02-24T08:50:32.846Z,200
2018-02-24T08:51:33.061Z,200
2018-02-24T08:52:32.538Z,200
2018-02-24T08:53:32.786Z,195
2018-02-24T08:54:32.768Z,195
2018-02-24T08:55:33.165Z,200
2018-02-24T08:56:33.002Z,205
2018-02-24T08:57:32.734Z,200
2018-02-24T08:58:32.725Z,205
2018-02-24T08:59:32.984Z,200
2018-02-24T09:00:32.703Z,200
2018-02-24T09:01:33.044Z,200
2018-02-24T09:02:32.925Z,200
2018-02-24T09:03:32.417Z,200
2018-02-24T09:04:32.493Z,200
2018-02-24T09:05:32.388Z,200
2018-02-24T09:06:32.884Z,200
2018-02-24T09:07:32.878Z,200
2018-02-24T09:08:32.435Z,205
2018-02-24T09:09:32.588Z,210
2018-02-24T09:10:32.835Z,205
2018-02-24T09:11:35.761Z,210
2018-02-24T09:12:32.810Z,205
2018-02-24T09:13:32.337Z,205
2018-02-24T09:14:32.836Z,205
2018-02-24T09:15:32.264Z,205
2018-02-24T09:16:32.588Z,205
2018-02-24T09:17:32.382Z,205
2018-02-24T09:18:32.533Z,205
2018-02-24T09:19:32.284Z,205
2018-02-24T09:20:32.531Z,205
2018-02-24T09:21:32.448Z,205
2018-02-24T09:22:32.561Z,205
2018-02-24T09:23:32.714Z,205
2018-02-24T09:24:32.438Z,205
2018-02-24T09:25:32.218Z,205
2018-02-24T09:26:32.142Z,205
2018-02-24T09:27:32.174Z,205
2018-02-24T09:28:32.358Z,205
2018-02-24T09:29:32.366Z,205
2018-02-24T09:30:32.086Z,205
2018-02-24T09:31:32.337Z,205
2018-02-24T09:32:32.121Z,205
2018-02-24T09:33:32.055Z,205
2018-02-24T09:34:32.562Z,205
2018-02-24T09:35:32.284Z,205
2018-02-24T09:36:32.383Z,205
2018-02-24T09:37:32.256Z,205
2018-02-24T09:38:32.518Z,205
2018-02-24T09:39:32.244Z,205
2018-02-24T09:40:32.007Z,200
2018-02-24T09:41:31.726Z,200
2018-02-24T09:42:33.473Z,205
2018-02-24T09:43:32.208Z,205
2018-02-24T09:44:31.680Z,205
2018-02-24T09:45:32.230Z,205
2018-02-24T09:46:32.183Z,205
2018-02-24T09:47:32.152Z,205
2018-02-24T09:48:32.143Z,205
2018-02-24T09:49:31.619Z,205
2018-02-24T09:50:31.868Z,205
2018-02-24T09:51:32.130Z,205
2018-02-24T09:52:32.087Z,205
2018-02-24T09:53:32.350Z,210
2018-02-24T09:54:31.838Z,205
2018-02-24T09:55:31.555Z,205
2018-02-24T09:56:32.312Z,205
2018-02-24T09:57:32.311Z,205
2018-02-24T09:58:32.026Z,210
2018-02-24T09:59:31.769Z,205
2018-02-24T10:00:31.755Z,205
2018-02-24T10:01:32.315Z,210
2018-02-24T10:02:32.257Z,205
2018-02-24T10:03:31.994Z,205
2018-02-24T10:04:31.459Z,205
2018-02-24T10:05:31.960Z,205
2018-02-24T10:06:31.946Z,205
2018-02-24T10:07:32.197Z,205
2018-02-24T10:08:32.170Z,205
2018-02-24T10:09:31.649Z,205
2018-02-24T10:10:31.903Z,205
2018-02-24T10:11:31.913Z,205
2018-02-24T10:12:34.804Z,205
2018-02-24T10:13:31.869Z,205
2018-02-24T10:14:32.107Z,205
2018-02-24T10:15:31.857Z,205
2018-02-24T10:16:31.914Z,205
2018-02-24T10:17:31.316Z,205
2018-02-24T10:18:31.555Z,205
2018-02-24T10:19:31.807Z,200
2018-02-24T10:20:31.543Z,205
2018-02-24T10:21:32.142Z,200
2018-02-24T10:22:31.514Z,205
2018-02-24T10:23:31.507Z,200
2018-02-24T10:24:31.760Z,200
2018-02-24T10:25:31.741Z,200
2018-02-24T10:56:14.856Z,195
2018-02-24T10:57:14.571Z,195
2018-02-24T10:58:14.796Z,195
2018-02-24T10:59:14.787Z,195
2018-02-24T11:00:15.632Z,195
2018-02-24T11:01:14.768Z,190
2018-02-24T11:02:15.014Z,190
2018-02-24T11:03:14.231Z,190
2018-02-24T11:04:14.481Z,190
2018-02-24T11:05:15.503Z,190
2018-02-24T11:06:15.053Z,190
2018-02-24T11:07:14.437Z,190
2018-02-24T11:08:14.659Z,190
2018-02-24T11:09:14.669Z,190
2018-02-24T11:10:15.994Z,190
2018-02-24T11:11:14.694Z,190
2018-02-24T11:12:14.929Z,190
2018-02-24T11:13:14.903Z,190
2018-02-24T11:14:14.380Z,190
2018-02-24T11:15:15.972Z,190
2018-02-24T11:16:15.000Z,190
2018-02-24T11:17:14.574Z,190
2018-02-24T11:18:14.821Z,190
2018-02-24T11:19:14.807Z,190
2018-02-24T11:20:16.021Z,190
2018-02-24T11:21:14.610Z,190
2018-02-24T11:22:14.531Z,190
2018-02-24T11:23:14.511Z,190
2018-02-24T11:24:14.495Z,190
2018-02-24T11:25:15.376Z,190
2018-02-24T11:26:14.952Z,185
2018-02-24T11:27:14.482Z,185
2018-02-24T11:28:14.717Z,185
2018-02-24T11:29:14.272Z,185
2018-02-24T11:30:16.430Z,185
2018-02-24T11:31:15.038Z,185
2018-02-24T11:32:14.677Z,185
2018-02-24T11:33:14.692Z,185
2018-02-24T11:34:14.653Z,185
2018-02-24T11:35:15.671Z,185
2018-02-24T11:36:14.576Z,185
2018-02-24T11:37:14.384Z,185
2018-02-24T11:38:14.367Z,185
2018-02-24T11:39:14.595Z,185
2018-02-24T11:40:15.445Z,185
2018-02-24T11:41:14.330Z,180
2018-02-24T11:42:14.340Z,180
2018-02-24T11:43:14.318Z,180
2018-02-24T11:44:14.062Z,180
2018-02-24T11:45:15.291Z,180
2018-02-24T11:46:14.738Z,180
2018-02-24T11:47:14.521Z,180
2018-02-24T11:48:14.557Z,180
2018-02-24T11:49:13.741Z,180
2018-02-24T11:50:15.758Z,180
2018-02-24T11:51:14.883Z,180
2018-02-24T11:52:13.981Z,180
2018-02-24T11:53:14.206Z,180
2018-02-24T11:54:14.453Z,180
2018-02-24T11:55:15.482Z,175
2018-02-24T11:56:14.191Z,175
2018-02-24T11:57:14.164Z,175
2018-02-24T11:58:13.651Z,175
2018-02-24T11:59:14.145Z,175
2018-02-24T12:00:15.731Z,175
2018-02-24T12:01:14.722Z,175
2018-02-24T12:02:14.151Z,175
2018-02-24T12:03:14.384Z,175
2018-02-24T12:04:14.348Z,175
2018-02-24T12:05:15.429Z,175
2018-02-24T12:06:14.465Z,175
2018-02-24T12:07:14.070Z,175
2018-02-24T12:08:13.803Z,175
2018-02-24T12:09:14.054Z,175
2018-02-24T12:10:15.337Z,175
2018-02-24T12:11:16.480Z,175
2018-02-24T12:12:14.034Z,170
2018-02-24T12:13:14.018Z,170
2018-02-24T12:14:13.746Z,170
2018-02-24T12:15:15.004Z,170
2018-02-24T12:16:13.979Z,170
2018-02-24T12:17:13.993Z,170
2018-02-24T12:18:13.455Z,170
2018-02-24T12:19:13.984Z,170
2018-02-24T12:20:15.213Z,170
2018-02-24T12:21:14.201Z,170
2018-02-24T12:22:14.177Z,170
2018-02-24T12:23:13.913Z,170
2018-02-24T12:24:13.394Z,170
2018-02-24T12:25:15.218Z,170
2018-02-24T12:26:15.809Z,170
2018-02-24T12:27:13.901Z,170
2018-02-24T12:28:13.630Z,170
2018-02-24T12:29:13.606Z,170
2018-02-24T12:30:14.974Z,170
2018-02-24T12:31:14.093Z,170
2018-02-24T12:32:13.850Z,170
2018-02-24T12:33:13.884Z,170
2018-02-24T12:34:13.300Z,170
2018-02-24T12:35:14.768Z,170
2018-02-24T12:36:13.568Z,170
2018-02-24T12:37:14.061Z,170
2018-02-24T12:38:13.267Z,165
2018-02-24T12:39:13.590Z,165
2018-02-24T12:40:14.871Z,165
2018-02-24T12:41:13.724Z,165
2018-02-24T12:42:14.017Z,165
2018-02-24T12:43:13.735Z,165
2018-02-24T12:44:13.721Z,165
2018-02-24T12:45:15.578Z,165
2018-02-24T12:46:13.964Z,165
2018-02-24T12:47:13.957Z,165
2018-02-24T12:48:13.435Z,165
2018-02-24T12:49:13.171Z,165
2018-02-24T12:50:15.401Z,165
2018-02-24T12:51:13.771Z,165
2018-02-24T12:52:13.248Z,165
2018-02-24T12:53:13.402Z,165
2018-02-24T12:54:13.630Z,165
2018-02-24T12:55:14.336Z,165
2018-02-24T12:56:13.831Z,165
2018-02-24T12:57:13.604Z,165
2018-02-24T12:58:13.607Z,165
2018-02-24T12:59:13.358Z,165
2018-02-24T13:00:14.703Z,165
2018-02-24T13:01:13.309Z,160
2018-02-24T13:02:13.815Z,160
2018-02-24T13:03:13.807Z,160
2018-02-24T13:04:13.406Z,160
2018-02-24T13:05:14.700Z,160
2018-02-24T13:06:13.921Z,160
2018-02-24T13:07:13.262Z,160
2018-02-24T13:08:13.672Z,160
2018-02-24T13:09:13.567Z,160
2018-02-24T13:10:14.177Z,160
2018-02-24T13:11:13.591Z,160
2018-02-24T13:12:13.679Z,160
2018-02-24T13:13:13.490Z,160
2018-02-24T13:14:13.459Z,160
2018-02-24T13:15:14.171Z,160
2018-02-24T13:16:13.289Z,160
2018-02-24T13:17:13.481Z,160
2018-02-24T13:18:13.670Z,160
2018-02-24T13:19:13.407Z,160
2018-02-24T13:20:14.526Z,155
2018-02-24T13:21:13.384Z,155
2018-02-24T13:22:13.630Z,155
2018-02-24T13:23:13.624Z,155
2018-02-24T13:24:13.101Z,155
2018-02-24T13:25:15.570Z,155
2018-02-24T13:26:14.332Z,155
2018-02-24T13:27:13.569Z,155
2018-02-24T13:28:13.057Z,155
2018-02-24T13:29:13.311Z,155
2018-02-24T13:30:14.017Z,155
2018-02-24T13:31:13.071Z,155
2018-02-24T13:32:13.278Z,155
2018-02-24T13:33:13.272Z,155
2018-02-24T13:34:13.518Z,155
2018-02-24T13:35:15.012Z,155
2018-02-24T13:36:12.740Z,155
2018-02-24T13:37:13.499Z,150
2018-02-24T13:38:13.072Z,150
2018-02-24T13:39:13.462Z,150
2018-02-24T13:40:14.760Z,150
2018-02-24T13:41:12.693Z,150
2018-02-24T13:42:12.469Z,150
2018-02-24T13:43:13.423Z,150
2018-02-24T13:44:13.416Z,150
2018-02-24T13:45:14.193Z,150
2018-02-24T13:46:12.894Z,150
2018-02-24T13:47:12.893Z,150
2018-02-24T13:48:13.413Z,150
2018-02-24T13:49:13.386Z,150
2018-02-24T13:50:14.749Z,150
2018-02-24T13:51:13.118Z,150
2018-02-24T13:52:13.100Z,145
2018-02-24T13:53:13.352Z,145
2018-02-24T13:54:13.093Z,145
2018-02-24T13:55:14.763Z,145
2018-02-24T13:56:13.349Z,145
2018-02-24T13:57:18.357Z,145
2018-02-24T13:58:13.038Z,150
2018-02-24T13:59:13.287Z,145
2018-02-24T14:00:14.868Z,145
2018-02-24T14:01:13.012Z,145
2018-02-24T14:02:12.489Z,145
2018-02-24T14:03:13.588Z,145
2018-02-24T14:04:12.985Z,145
2018-02-24T14:05:14.097Z,140
2018-02-24T14:06:13.243Z,140
2018-02-24T14:07:12.962Z,140
2018-02-24T14:08:13.214Z,140
2018-02-24T14:09:13.227Z,140
2018-02-24T14:10:13.447Z,140
2018-02-24T14:11:13.185Z,140
2018-02-24T14:12:13.220Z,140
2018-02-24T14:13:13.021Z,140
2018-02-24T14:14:12.895Z,140
2018-02-24T14:15:14.384Z,140
2018-02-24T14:16:13.158Z,140
2018-02-24T14:17:12.879Z,140
2018-02-24T14:18:13.117Z,140
2018-02-24T14:19:13.144Z,140
2018-02-24T14:20:14.623Z,140
2018-02-24T14:21:12.328Z,140
2018-02-24T14:22:12.855Z,140
2018-02-24T14:23:12.583Z,140
2018-02-24T14:24:12.553Z,140
2018-02-24T14:25:14.780Z,140
2018-02-24T14:26:13.068Z,140
2018-02-24T14:27:12.295Z,140
2018-02-24T14:28:14.597Z,135
2018-02-24T14:29:12.915Z,135
2018-02-24T14:30:14.103Z,135
2018-02-24T14:31:12.772Z,135
2018-02-24T14:32:13.004Z,135
2018-02-24T14:33:12.745Z,135
2018-02-24T14:34:12.728Z,135
2018-02-24T14:35:13.363Z,135
2018-02-24T14:36:12.475Z,135
2018-02-24T14:37:12.708Z,130
2018-02-24T14:38:13.052Z,130
2018-02-24T14:39:12.673Z,130
2018-02-24T14:40:13.425Z,130
2018-02-24T14:41:12.674Z,130
2018-02-24T14:42:12.150Z,130
2018-02-24T14:43:12.455Z,130
2018-02-24T14:44:12.377Z,125